Time;durP1;ratioP1;P1;durP2;ratioP2;P2;SDS_P1;SDS_P2;PMS_P1;PMS_P2;Temp;Humidity;BMP_temperature;BMP_pressure;BME280_temperature;BME280_humidity;BME280_pressure;Samples;Min_cycle;Max_cycle;Signal;HPM_P1;HPM_P2
2023/12/10 00:02:00;;;;;;;34.83;16.23;;;1.00;99.90;;;;;;5097311;28;20174;-79
2023/12/10 00:04:26;;;;;;;36.80;15.90;;;1.00;99.90;;;;;;5094998;28;20174;-78
2023/12/10 00:06:52;;;;;;;35.00;15.93;;;1.00;99.90;;;;;;5094688;28;20525;-78
2023/12/10 00:09:17;;;;;;;41.37;16.47;;;1.00;99.90;;;;;;5081949;28;20221;-78
2023/12/10 00:11:43;;;;;;;31.60;15.87;;;1.00;99.90;;;;;;5075656;28;20174;-77
2023/12/10 00:14:09;;;;;;;36.17;14.73;;;1.00;99.90;;;;;;5079028;28;20181;-76
2023/12/10 00:16:35;;;;;;;31.50;15.10;;;1.00;99.90;;;;;;5085237;28;20205;-76
2023/12/10 00:19:01;;;;;;;29.37;14.77;;;0.90;99.90;;;;;;5085831;28;20193;-77
2023/12/10 00:21:26;;;;;;;29.50;14.20;;;0.90;99.90;;;;;;5080762;28;20174;-79
2023/12/10 00:23:52;;;;;;;32.67;14.80;;;1.00;99.90;;;;;;5083482;28;20182;-78
2023/12/10 00:26:19;;;;;;;27.17;14.17;;;1.00;99.90;;;;;;5083723;28;20664;-78
2023/12/10 00:28:45;;;;;;;28.77;13.43;;;1.00;99.90;;;;;;5056013;28;20205;-80
2023/12/10 00:31:11;;;;;;;25.57;13.80;;;1.00;99.90;;;;;;5074031;28;20642;-77
2023/12/10 00:33:37;;;;;;;27.80;13.93;;;0.90;99.90;;;;;;5075239;28;20234;-77
2023/12/10 00:36:03;;;;;;;28.00;14.67;;;1.00;99.90;;;;;;5076779;28;20210;-79
2023/12/10 00:38:29;;;;;;;30.10;13.33;;;1.00;99.90;;;;;;5060886;28;20177;-79
2023/12/10 00:40:55;;;;;;;31.27;15.50;;;1.00;99.90;;;;;;5077707;28;20172;-81
2023/12/10 00:43:21;;;;;;;27.87;14.23;;;1.10;99.90;;;;;;5077490;28;20190;-79
2023/12/10 00:45:46;;;;;;;27.90;14.00;;;1.10;99.90;;;;;;5059416;28;20185;-79
2023/12/10 00:48:12;;;;;;;26.87;13.97;;;1.00;99.90;;;;;;5075931;28;20181;-79
2023/12/10 00:50:38;;;;;;;30.97;14.10;;;1.00;99.90;;;;;;5076201;28;20251;-79
2023/12/10 00:53:04;;;;;;;25.40;13.17;;;1.00;99.90;;;;;;5077392;28;20163;-80
2023/12/10 00:55:30;;;;;;;26.80;14.17;;;1.00;99.90;;;;;;5076417;28;20289;-80
2023/12/10 00:57:56;;;;;;;30.50;14.30;;;1.10;99.90;;;;;;5076894;28;20204;-78
2023/12/10 01:00:22;;;;;;;26.87;13.77;;;1.10;99.90;;;;;;5076549;28;20515;-79
2023/12/10 01:02:51;;;;;;;25.40;12.40;;;1.10;99.90;;;;;;5076478;28;20169;-78
2023/12/10 01:05:16;;;;;;;22.70;11.50;;;1.10;99.90;;;;;;5077448;28;20231;-80
2023/12/10 01:07:42;;;;;;;23.40;13.00;;;1.20;99.90;;;;;;5075942;28;20234;-79
2023/12/10 01:10:08;;;;;;;24.27;12.63;;;1.20;99.90;;;;;;5075664;28;20218;-80
2023/12/10 01:12:36;;;;;;;22.47;11.63;;;1.20;99.90;;;;;;5076033;28;20203;-77
2023/12/10 01:15:06;;;;;;;21.67;12.87;;;1.10;99.90;;;;;;5076868;28;20521;-77
2023/12/10 01:17:32;;;;;;;19.57;10.97;;;1.20;99.90;;;;;;5077804;28;20229;-76
2023/12/10 01:20:03;;;;;;;23.47;12.70;;;1.30;99.90;;;;;;5075878;28;20182;-77
2023/12/10 01:22:29;;;;;;;22.03;12.10;;;1.30;99.90;;;;;;5082275;28;20203;-78
2023/12/10 01:24:56;;;;;;;24.13;12.70;;;1.20;99.90;;;;;;5084799;28;20202;-77
2023/12/10 01:27:22;;;;;;;22.93;11.73;;;1.20;99.90;;;;;;5079904;28;20175;-79
2023/12/10 01:29:48;;;;;;;22.20;12.50;;;1.10;99.90;;;;;;5077500;28;20176;-79
2023/12/10 01:32:14;;;;;;;23.50;12.10;;;0.90;99.90;;;;;;5076308;28;20182;-79
2023/12/10 01:34:41;;;;;;;24.43;13.13;;;1.00;99.90;;;;;;5078660;28;20170;-77
2023/12/10 01:37:07;;;;;;;25.10;13.13;;;1.00;99.90;;;;;;5080860;28;20282;-78
2023/12/10 01:39:33;;;;;;;24.47;13.00;;;0.90;99.90;;;;;;5081780;28;20226;-79
2023/12/10 01:42:00;;;;;;;20.40;11.77;;;0.90;99.90;;;;;;5075428;28;20175;-79
2023/12/10 01:44:26;;;;;;;25.50;13.70;;;1.00;99.90;;;;;;5074950;28;20175;-79
2023/12/10 01:46:54;;;;;;;26.13;13.20;;;1.00;99.90;;;;;;5073819;28;20177;-76
2023/12/10 01:49:22;;;;;;;29.63;13.67;;;1.00;99.90;;;;;;5056732;28;20186;-78
2023/12/10 01:51:49;;;;;;;30.33;14.63;;;0.90;99.90;;;;;;5075636;28;20186;-76
2023/12/10 01:54:22;;;;;;;27.50;13.87;;;0.80;99.90;;;;;;5078197;28;20185;-78
2023/12/10 01:56:52;;;;;;;30.07;14.03;;;0.70;99.90;;;;;;5082917;28;20244;-78
2023/12/10 01:59:19;;;;;;;28.23;13.67;;;0.70;99.90;;;;;;5065237;28;20266;-80
2023/12/10 02:01:46;;;;;;;29.87;14.63;;;0.90;99.90;;;;;;5065196;28;20186;-78
2023/12/10 02:04:13;;;;;;;31.50;14.63;;;0.90;99.90;;;;;;5058101;28;20203;-77
2023/12/10 02:06:39;;;;;;;26.90;13.70;;;1.10;99.90;;;;;;5076010;28;20237;-77
2023/12/10 02:09:13;;;;;;;26.33;13.73;;;0.90;99.90;;;;;;5087244;28;20223;-77
2023/12/10 02:11:40;;;;;;;29.63;13.60;;;1.00;99.90;;;;;;5080533;28;20159;-80
2023/12/10 02:14:06;;;;;;;31.37;13.27;;;0.90;99.90;;;;;;5075713;28;20243;-79
2023/12/10 02:16:32;;;;;;;25.77;13.63;;;0.80;99.90;;;;;;5077489;28;20666;-78
2023/12/10 02:18:59;;;;;;;29.50;14.27;;;0.80;99.90;;;;;;5087906;28;20173;-80
2023/12/10 02:21:26;;;;;;;26.37;13.13;;;0.90;99.90;;;;;;5077495;28;20225;-77
2023/12/10 02:24:14;;;;;;;22.57;12.97;;;0.80;99.90;;;;;;5075254;28;20201;-79
2023/12/10 02:26:40;;;;;;;24.90;12.23;;;0.70;99.90;;;;;;5075507;28;20244;-80
2023/12/10 02:29:06;;;;;;;17.43;11.03;;;0.80;99.90;;;;;;5057528;28;20215;-77
2023/12/10 02:31:32;;;;;;;21.93;11.67;;;0.80;99.90;;;;;;5075296;28;20182;-79
2023/12/10 02:33:58;;;;;;;23.30;12.13;;;0.70;99.90;;;;;;5074840;28;20172;-77
2023/12/10 02:36:23;;;;;;;25.53;12.03;;;0.70;99.90;;;;;;5074798;28;20211;-79
2023/12/10 02:38:50;;;;;;;22.20;12.07;;;0.70;99.90;;;;;;5073823;28;20177;-80
2023/12/10 02:41:16;;;;;;;23.83;11.93;;;0.60;99.90;;;;;;5075294;28;20257;-78
2023/12/10 02:43:42;;;;;;;24.67;12.47;;;0.50;99.90;;;;;;5075333;28;20722;-78
2023/12/10 02:46:08;;;;;;;24.60;12.13;;;0.50;99.90;;;;;;5074752;28;20200;-80
2023/12/10 02:48:34;;;;;;;22.13;11.43;;;0.60;99.90;;;;;;5056914;28;20643;-79
2023/12/10 02:51:00;;;;;;;22.53;11.43;;;0.60;99.90;;;;;;5075847;28;20179;-80
2023/12/10 02:53:25;;;;;;;23.23;12.47;;;0.60;99.90;;;;;;5074492;28;20628;-76
2023/12/10 02:55:52;;;;;;;25.37;12.77;;;0.70;99.90;;;;;;5082744;28;20271;-76
2023/12/10 02:58:17;;;;;;;23.47;12.67;;;0.80;99.90;;;;;;5074823;28;20571;-78
2023/12/10 03:00:44;;;;;;;24.20;11.77;;;0.80;99.90;;;;;;5074470;28;20179;-76
2023/12/10 03:03:09;;;;;;;23.00;12.47;;;0.90;99.90;;;;;;5073832;28;20170;-76
2023/12/10 03:05:35;;;;;;;21.63;10.60;;;0.90;99.90;;;;;;5075373;28;20370;-78
2023/12/10 03:08:01;;;;;;;20.87;11.73;;;1.00;99.90;;;;;;5079504;28;20193;-77
2023/12/10 03:10:27;;;;;;;18.87;11.07;;;1.00;99.90;;;;;;5090251;28;20167;-78
2023/12/10 03:12:52;;;;;;;21.27;12.43;;;1.10;99.90;;;;;;5079063;28;20264;-79
2023/12/10 03:15:18;;;;;;;24.93;11.83;;;1.10;99.90;;;;;;5073934;28;20658;-80
2023/12/10 03:17:44;;;;;;;19.67;11.30;;;1.10;99.90;;;;;;5074968;28;20180;-79
2023/12/10 03:20:12;;;;;;;18.50;11.63;;;1.10;99.90;;;;;;5074278;28;20179;-79
2023/12/10 03:22:39;;;;;;;19.33;11.73;;;1.10;99.90;;;;;;5073897;28;20175;-77
2023/12/10 03:25:06;;;;;;;20.10;11.80;;;1.10;99.90;;;;;;5074740;28;20185;-79
2023/12/10 03:27:33;;;;;;;17.67;10.73;;;1.10;99.90;;;;;;5073636;28;20176;-79
2023/12/10 03:29:58;;;;;;;18.23;10.77;;;1.00;99.90;;;;;;5073834;28;20191;-79
2023/12/10 03:32:26;;;;;;;18.77;10.57;;;0.90;99.90;;;;;;5073530;28;20171;-79
2023/12/10 03:34:51;;;;;;;16.23;10.13;;;1.00;99.90;;;;;;5073103;28;20170;-78
2023/12/10 03:37:17;;;;;;;17.43;10.23;;;1.00;99.90;;;;;;5077451;28;20187;-76
2023/12/10 03:39:43;;;;;;;17.53;10.30;;;0.80;99.90;;;;;;5079773;28;20172;-77
2023/12/10 03:42:09;;;;;;;19.47;10.53;;;0.90;99.90;;;;;;5076307;28;20181;-77
2023/12/10 03:44:34;;;;;;;20.20;10.67;;;0.90;99.90;;;;;;5084651;28;20655;-77
2023/12/10 03:47:01;;;;;;;23.60;12.17;;;1.00;99.90;;;;;;5076532;28;20254;-76
2023/12/10 03:49:28;;;;;;;19.57;11.53;;;1.10;99.90;;;;;;5085443;28;20171;-77
2023/12/10 03:51:56;;;;;;;18.77;11.40;;;1.10;99.90;;;;;;5074837;28;20174;-77
2023/12/10 03:54:22;;;;;;;20.20;11.93;;;1.10;99.90;;;;;;5074246;28;20176;-80
2023/12/10 03:56:48;;;;;;;23.57;11.60;;;1.10;99.90;;;;;;5055842;28;20283;-78
2023/12/10 03:59:14;;;;;;;19.80;11.00;;;1.00;99.90;;;;;;5074292;28;20645;-78
2023/12/10 04:01:43;;;;;;;20.77;11.60;;;1.00;99.90;;;;;;5079104;28;20180;-78
2023/12/10 04:04:11;;;;;;;22.37;11.33;;;1.10;99.90;;;;;;5075624;28;20181;-79
2023/12/10 04:06:40;;;;;;;22.37;12.37;;;1.00;99.90;;;;;;5059028;28;20175;-77
2023/12/10 04:09:09;;;;;;;20.63;11.07;;;1.00;99.90;;;;;;5075452;28;20222;-79
2023/12/10 04:11:36;;;;;;;18.60;11.47;;;0.90;99.90;;;;;;5073836;28;20193;-77
2023/12/10 04:14:02;;;;;;;22.53;11.70;;;0.90;99.90;;;;;;5075634;28;20170;-77
2023/12/10 04:16:30;;;;;;;19.73;10.90;;;0.90;99.90;;;;;;5060010;28;20214;-80
2023/12/10 04:18:58;;;;;;;21.63;12.20;;;0.90;99.90;;;;;;5078416;28;20171;-76
2023/12/10 04:21:24;;;;;;;19.30;12.43;;;0.90;99.90;;;;;;5044089;28;20177;-78
2023/12/10 04:23:50;;;;;;;22.60;12.50;;;0.90;99.90;;;;;;5077558;28;20670;-78
2023/12/10 04:26:17;;;;;;;21.33;11.80;;;1.00;99.90;;;;;;5077779;28;20177;-79
2023/12/10 04:28:43;;;;;;;21.63;12.03;;;1.00;99.90;;;;;;5078174;28;20178;-79
2023/12/10 04:31:10;;;;;;;19.07;11.00;;;1.00;99.90;;;;;;5061602;28;20185;-78
2023/12/10 04:33:36;;;;;;;21.60;11.70;;;1.00;99.90;;;;;;5077656;28;20220;-79
2023/12/10 04:36:03;;;;;;;21.37;11.97;;;1.10;99.90;;;;;;5077592;28;20189;-79
2023/12/10 04:38:29;;;;;;;20.57;12.17;;;1.10;99.90;;;;;;5077354;28;20497;-79
2023/12/10 04:40:55;;;;;;;16.50;10.40;;;1.10;99.90;;;;;;5076955;28;20175;-80
2023/12/10 04:43:21;;;;;;;17.87;10.77;;;1.20;99.90;;;;;;5080332;28;20233;-80
2023/12/10 04:45:47;;;;;;;20.77;11.53;;;1.20;99.90;;;;;;5060259;28;20199;-79
2023/12/10 04:48:14;;;;;;;20.03;11.63;;;1.30;99.90;;;;;;5086084;28;20185;-77
2023/12/10 04:50:40;;;;;;;21.60;11.23;;;1.30;99.90;;;;;;5096927;28;20214;-78
2023/12/10 04:53:07;;;;;;;22.17;12.33;;;1.20;99.90;;;;;;5096823;28;20174;-78
2023/12/10 04:55:32;;;;;;;21.57;12.30;;;1.10;99.90;;;;;;5096436;28;20199;-77
2023/12/10 04:57:59;;;;;;;22.57;12.37;;;1.10;99.90;;;;;;5096890;28;20607;-77
2023/12/10 05:00:25;;;;;;;23.67;12.70;;;1.10;99.90;;;;;;5101009;28;20184;-77
2023/12/10 05:02:50;;;;;;;21.70;12.53;;;1.10;99.90;;;;;;5086802;28;20282;-76
2023/12/10 05:05:16;;;;;;;22.70;13.27;;;1.10;99.90;;;;;;5106785;28;20173;-77
2023/12/10 05:07:43;;;;;;;24.00;13.37;;;1.10;99.90;;;;;;5090456;28;20186;-78
2023/12/10 05:10:09;;;;;;;24.73;12.63;;;0.90;99.90;;;;;;5098341;28;20241;-78
2023/12/10 05:12:35;;;;;;;22.03;12.47;;;0.80;99.90;;;;;;5077692;28;20638;-78
2023/12/10 05:15:01;;;;;;;22.73;12.57;;;0.70;99.90;;;;;;5056916;28;20180;-80
2023/12/10 05:17:27;;;;;;;25.17;13.00;;;0.70;99.90;;;;;;5076153;28;20312;-78
2023/12/10 05:19:53;;;;;;;27.17;13.20;;;0.80;99.90;;;;;;5075951;28;20197;-79
2023/12/10 05:22:20;;;;;;;22.67;12.33;;;0.80;99.90;;;;;;5075419;28;20174;-77
2023/12/10 05:24:45;;;;;;;27.43;13.57;;;0.70;99.90;;;;;;5074970;28;20575;-77
2023/12/10 05:27:13;;;;;;;24.10;13.23;;;0.70;99.90;;;;;;5084869;28;20236;-78
2023/12/10 05:29:39;;;;;;;24.80;13.43;;;0.60;99.90;;;;;;5089374;28;20237;-78
2023/12/10 05:32:05;;;;;;;27.10;13.90;;;0.60;99.90;;;;;;5084194;28;20246;-76
2023/12/10 05:34:31;;;;;;;26.53;13.13;;;0.60;99.90;;;;;;5057354;28;20185;-78
2023/12/10 05:36:57;;;;;;;26.63;13.27;;;0.60;99.90;;;;;;5075314;28;20288;-80
2023/12/10 05:39:23;;;;;;;24.50;12.77;;;0.70;99.90;;;;;;5075228;28;20175;-77
2023/12/10 05:41:49;;;;;;;24.67;13.13;;;0.60;99.90;;;;;;5075284;28;20178;-77
2023/12/10 05:44:16;;;;;;;24.23;13.10;;;0.50;99.90;;;;;;5080717;28;20193;-78
2023/12/10 05:46:42;;;;;;;23.50;12.77;;;;;;;;;;5085117;28;20178;-78
2023/12/10 05:49:08;;;;;;;23.47;12.77;;;0.50;99.90;;;;;;5074841;28;20175;-79
2023/12/10 05:51:33;;;;;;;23.70;13.60;;;0.60;99.90;;;;;;5075822;28;20240;-76
2023/12/10 05:53:59;;;;;;;22.10;12.57;;;0.60;99.90;;;;;;5075754;28;20202;-79
2023/12/10 05:56:25;;;;;;;24.57;12.33;;;0.70;99.90;;;;;;5075462;28;20766;-77
2023/12/10 05:58:51;;;;;;;22.37;12.17;;;0.70;99.90;;;;;;5074605;28;20166;-78
2023/12/10 06:01:17;;;;;;;24.60;12.83;;;0.70;99.90;;;;;;5074087;28;20630;-77
2023/12/10 06:03:42;;;;;;;21.37;11.67;;;0.70;99.90;;;;;;5081782;28;20174;-77
2023/12/10 06:06:08;;;;;;;27.17;12.63;;;0.70;99.90;;;;;;5080654;28;20179;-77
2023/12/10 06:08:34;;;;;;;25.27;13.43;;;0.70;99.90;;;;;;5041298;28;1475382;-79
2023/12/10 06:11:00;;;;;;;25.60;12.40;;;0.90;99.90;;;;;;5095603;28;20624;-77
2023/12/10 06:13:29;;;;;;;23.60;12.57;;;0.90;99.90;;;;;;5095716;28;20166;-77
2023/12/10 06:15:56;;;;;;;25.00;12.93;;;0.90;99.90;;;;;;5095384;28;20203;-77
2023/12/10 06:18:22;;;;;;;22.83;12.43;;;0.90;99.90;;;;;;5097879;28;20171;-77
2023/12/10 06:20:49;;;;;;;21.23;12.53;;;0.90;99.90;;;;;;5080813;28;20178;-78
2023/12/10 06:23:14;;;;;;;25.70;12.93;;;0.90;99.90;;;;;;5097389;28;20262;-80
2023/12/10 06:25:40;;;;;;;22.57;12.30;;;1.00;99.90;;;;;;5095807;28;20205;-80
2023/12/10 06:28:06;;;;;;;22.70;13.23;;;1.00;99.90;;;;;;5096753;28;20222;-78
2023/12/10 06:30:32;;;;;;;21.13;12.10;;;0.90;99.90;;;;;;5095273;28;20171;-79
2023/12/10 06:32:58;;;;;;;23.77;12.50;;;0.90;99.90;;;;;;5095112;28;20178;-79
2023/12/10 06:35:23;;;;;;;25.53;12.93;;;0.90;99.90;;;;;;5095455;28;20213;-78
2023/12/10 06:37:50;;;;;;;21.10;12.83;;;0.90;99.90;;;;;;5095411;28;20179;-78
2023/12/10 06:40:16;;;;;;;25.90;13.07;;;0.90;99.90;;;;;;5094575;28;20201;-77
2023/12/10 06:42:42;;;;;;;22.20;12.40;;;1.00;99.90;;;;;;5095492;28;20185;-77
2023/12/10 06:45:08;;;;;;;26.53;13.37;;;1.10;99.90;;;;;;5093987;28;20171;-77
2023/12/10 06:47:34;;;;;;;22.10;12.70;;;1.10;99.90;;;;;;5098232;28;20177;-76
2023/12/10 06:50:00;;;;;;;21.80;12.73;;;1.20;99.90;;;;;;5102437;28;20171;-79
2023/12/10 06:52:26;;;;;;;23.60;12.40;;;1.20;99.90;;;;;;5110178;28;20170;-78
2023/12/10 06:54:52;;;;;;;21.07;12.10;;;1.10;99.90;;;;;;5096439;28;20232;-77
2023/12/10 06:57:18;;;;;;;22.90;12.90;;;1.10;99.90;;;;;;5076299;28;20274;-79
2023/12/10 06:59:43;;;;;;;23.47;12.50;;;1.10;99.90;;;;;;5097430;28;20212;-77
2023/12/10 07:02:09;;;;;;;21.30;12.60;;;1.20;99.90;;;;;;5077531;28;20299;-78
2023/12/10 07:04:36;;;;;;;24.63;13.27;;;1.20;99.90;;;;;;5097518;28;20177;-79
2023/12/10 07:07:02;;;;;;;22.87;13.63;;;1.20;99.90;;;;;;5096022;28;20530;-78
2023/12/10 07:09:28;;;;;;;27.00;13.07;;;1.20;99.90;;;;;;5093721;28;20226;-78
2023/12/10 07:11:54;;;;;;;24.63;13.50;;;1.30;99.90;;;;;;5094169;28;20177;-78
2023/12/10 07:14:20;;;;;;;23.60;13.73;;;1.30;99.90;;;;;;5110239;28;20163;-79
2023/12/10 07:16:46;;;;;;;23.90;14.23;;;1.30;99.90;;;;;;5104521;28;20206;-79
2023/12/10 07:19:12;;;;;;;25.60;13.90;;;1.30;99.90;;;;;;5076757;28;20205;-78
2023/12/10 07:21:38;;;;;;;26.97;14.80;;;1.40;99.90;;;;;;5093888;28;20203;-78
2023/12/10 07:24:05;;;;;;;26.23;13.93;;;1.30;99.90;;;;;;5094059;28;20228;-78
2023/12/10 07:26:31;;;;;;;22.83;13.53;;;1.40;99.90;;;;;;5094963;28;20235;-79
2023/12/10 07:28:56;;;;;;;23.80;13.00;;;1.40;99.90;;;;;;5095021;28;20189;-76
2023/12/10 07:31:22;;;;;;;25.63;14.03;;;1.30;99.90;;;;;;5095180;28;20197;-80
2023/12/10 07:33:48;;;;;;;25.43;14.77;;;1.40;99.90;;;;;;5095678;28;20166;-78
2023/12/10 07:36:14;;;;;;;26.10;13.93;;;1.20;99.90;;;;;;5094911;28;20213;-80
2023/12/10 07:38:40;;;;;;;26.03;13.87;;;1.30;99.90;;;;;;5094490;28;20211;-79
2023/12/10 07:41:06;;;;;;;27.00;14.10;;;1.30;99.90;;;;;;5094388;28;20180;-79
2023/12/10 07:43:32;;;;;;;26.70;14.67;;;1.30;99.90;;;;;;5094839;28;20189;-78
2023/12/10 07:45:58;;;;;;;26.50;14.47;;;1.30;99.90;;;;;;5094436;28;20170;-80
2023/12/10 07:48:24;;;;;;;26.87;14.53;;;1.20;99.90;;;;;;5094017;28;20227;-78
2023/12/10 07:50:49;;;;;;;29.40;16.13;;;1.30;99.90;;;;;;5094131;28;20178;-79
2023/12/10 07:53:16;;;;;;;30.17;16.07;;;1.30;99.90;;;;;;5098080;28;20578;-77
2023/12/10 07:55:43;;;;;;;31.53;16.83;;;1.30;99.90;;;;;;5098054;28;20766;-79
2023/12/10 07:58:10;;;;;;;37.47;18.77;;;1.40;99.90;;;;;;5097127;28;20172;-78
2023/12/10 08:00:36;;;;;;;33.20;17.27;;;1.40;99.90;;;;;;5099378;28;20177;-79
2023/12/10 08:03:05;;;;;;;34.13;18.23;;;1.40;99.90;;;;;;5109301;28;20184;-79
2023/12/10 08:05:31;;;;;;;42.13;21.30;;;1.40;99.90;;;;;;5102310;28;20184;-78
2023/12/10 08:08:02;;;;;;;38.93;18.53;;;1.40;99.90;;;;;;5096603;28;20181;-78
2023/12/10 08:10:29;;;;;;;36.17;18.70;;;1.50;99.90;;;;;;5093793;28;20173;-78
2023/12/10 08:12:54;;;;;;;36.53;18.37;;;1.40;99.90;;;;;;5094210;28;20624;-79
2023/12/10 08:15:21;;;;;;;36.53;19.10;;;1.50;99.90;;;;;;5094344;28;20235;-76
2023/12/10 08:17:47;;;;;;;34.67;18.33;;;1.50;99.90;;;;;;5097620;28;20185;-77
2023/12/10 08:20:12;;;;;;;30.03;16.77;;;1.60;99.90;;;;;;5104415;28;20170;-76
2023/12/10 08:22:38;;;;;;;28.37;15.83;;;1.50;99.90;;;;;;5103752;28;20195;-77
2023/12/10 08:25:05;;;;;;;32.47;17.70;;;1.40;99.90;;;;;;5096331;28;20254;-76
2023/12/10 08:27:31;;;;;;;32.07;17.30;;;1.40;99.90;;;;;;5112475;28;20210;-77
2023/12/10 08:29:57;;;;;;;35.63;16.17;;;1.30;99.90;;;;;;5094320;28;20182;-78
2023/12/10 08:32:23;;;;;;;34.70;18.57;;;1.30;99.90;;;;;;5095162;28;20186;-78
2023/12/10 08:34:48;;;;;;;29.80;17.17;;;1.40;99.90;;;;;;5093700;28;20188;-76
2023/12/10 08:37:14;;;;;;;31.70;15.97;;;1.60;99.90;;;;;;5093454;28;20298;-79
2023/12/10 08:39:42;;;;;;;29.23;15.73;;;1.60;99.90;;;;;;5093096;28;20654;-79
2023/12/10 08:42:08;;;;;;;28.50;15.50;;;1.60;99.90;;;;;;5093382;28;20170;-77
2023/12/10 08:44:34;;;;;;;28.97;15.93;;;1.60;99.90;;;;;;5074897;28;20524;-77
2023/12/10 08:46:59;;;;;;;30.07;15.77;;;1.70;99.90;;;;;;5093345;28;20181;-78
2023/12/10 08:49:26;;;;;;;24.27;14.47;;;1.70;99.90;;;;;;5091267;28;20634;-77
2023/12/10 08:51:52;;;;;;;25.77;13.20;;;1.70;99.90;;;;;;5075553;28;20254;-78
2023/12/10 08:54:18;;;;;;;25.33;15.10;;;1.60;99.90;;;;;;5078066;28;20175;-78
2023/12/10 08:56:43;;;;;;;30.43;15.83;;;1.80;99.90;;;;;;5073104;28;20209;-76
2023/12/10 08:59:09;;;;;;;31.87;17.83;;;1.90;99.90;;;;;;5069851;28;20174;-78
2023/12/10 09:01:35;;;;;;;25.80;14.90;;;1.90;99.90;;;;;;5098390;28;20167;-77
2023/12/10 09:04:03;;;;;;;27.33;14.70;;;1.90;99.90;;;;;;5090120;28;20734;-78
2023/12/10 09:06:29;;;;;;;24.23;14.43;;;1.90;99.90;;;;;;5077873;28;20642;-79
2023/12/10 09:08:55;;;;;;;31.80;16.83;;;2.00;99.90;;;;;;5077451;28;20226;-78
2023/12/10 09:11:20;;;;;;;24.93;15.03;;;2.10;99.90;;;;;;5077675;28;20270;-77
2023/12/10 09:13:46;;;;;;;27.83;15.37;;;2.00;99.90;;;;;;5076733;28;20210;-79
2023/12/10 09:16:14;;;;;;;33.07;15.60;;;2.10;99.90;;;;;;5077322;28;20204;-78
2023/12/10 09:18:39;;;;;;;29.00;16.67;;;2.00;99.90;;;;;;5076825;28;20182;-78
2023/12/10 09:21:07;;;;;;;29.20;16.83;;;2.00;99.90;;;;;;5078114;28;20189;-78
2023/12/10 09:23:34;;;;;;;27.83;16.30;;;2.30;99.90;;;;;;5086580;28;20177;-77
2023/12/10 09:26:00;;;;;;;30.73;15.80;;;2.40;99.90;;;;;;5080559;28;20179;-77
2023/12/10 09:28:26;;;;;;;29.80;16.77;;;2.60;99.90;;;;;;5079638;28;20193;-78
2023/12/10 09:30:52;;;;;;;26.60;15.60;;;2.60;99.90;;;;;;5076761;28;20629;-78
2023/12/10 09:33:19;;;;;;;27.60;16.07;;;2.70;99.90;;;;;;5077122;28;20200;-78
2023/12/10 09:35:45;;;;;;;26.13;15.60;;;2.70;99.90;;;;;;5077030;28;20199;-78
2023/12/10 09:38:10;;;;;;;26.73;15.90;;;2.80;99.90;;;;;;5077050;28;20716;-78
2023/12/10 09:40:38;;;;;;;28.50;15.97;;;3.00;99.90;;;;;;5075891;28;20179;-78
2023/12/10 09:43:04;;;;;;;32.07;17.70;;;3.10;99.90;;;;;;5076364;28;20191;-77
2023/12/10 09:45:30;;;;;;;32.07;18.70;;;3.10;99.90;;;;;;5076493;28;20165;-79
2023/12/10 09:47:56;;;;;;;35.07;18.57;;;3.00;99.90;;;;;;5076701;28;20214;-79
2023/12/10 09:50:23;;;;;;;34.43;18.57;;;2.80;99.90;;;;;;5089460;28;20181;-77
2023/12/10 09:52:49;;;;;;;28.90;17.03;;;2.90;99.90;;;;;;5096830;28;20177;-79
2023/12/10 09:55:17;;;;;;;28.73;16.17;;;3.10;99.90;;;;;;5077770;28;20315;-77
2023/12/10 09:57:43;;;;;;;29.53;17.13;;;3.10;99.90;;;;;;5102562;28;20203;-78
2023/12/10 10:00:09;;;;;;;31.00;17.03;;;3.20;99.90;;;;;;5107982;28;20617;-80
2023/12/10 10:02:36;;;;;;;23.87;15.40;;;3.20;99.90;;;;;;5115261;28;20174;-77
2023/12/10 10:05:03;;;;;;;22.83;15.37;;;3.00;99.90;;;;;;5097820;28;20191;-80
2023/12/10 10:07:32;;;;;;;28.33;15.40;;;2.90;99.90;;;;;;5070151;28;20216;-78
2023/12/10 10:09:58;;;;;;;21.20;14.47;;;3.10;99.90;;;;;;5090363;28;20227;-80
2023/12/10 10:12:31;;;;;;;20.93;14.00;;;3.20;99.90;;;;;;5094768;28;20662;-79
2023/12/10 10:14:59;;;;;;;21.37;14.17;;;3.30;99.90;;;;;;5095334;28;20170;-78
2023/12/10 10:17:28;;;;;;;20.13;13.17;;;3.40;99.90;;;;;;5094342;28;20680;-78
2023/12/10 10:19:55;;;;;;;24.07;14.00;;;3.70;99.90;;;;;;5094862;28;20641;-79
2023/12/10 10:22:25;;;;;;;19.60;13.83;;;3.80;99.90;;;;;;5095718;28;20206;-79
2023/12/10 10:24:55;;;;;;;19.67;13.20;;;3.70;99.90;;;;;;5095922;28;20715;-77
2023/12/10 10:27:21;;;;;;;20.27;13.13;;;3.60;99.90;;;;;;5095601;28;20171;-78
2023/12/10 10:29:54;;;;;;;23.60;13.77;;;3.50;99.90;;;;;;5095562;28;20181;-77
2023/12/10 10:32:23;;;;;;;23.47;14.90;;;3.60;99.90;;;;;;5094098;28;20175;-78
2023/12/10 10:34:50;;;;;;;22.00;14.50;;;3.80;99.90;;;;;;5095544;28;20179;-78
2023/12/10 10:37:17;;;;;;;20.97;12.87;;;3.90;99.90;;;;;;5095535;28;20207;-77
2023/12/10 10:39:50;;;;;;;21.83;13.37;;;4.00;99.90;;;;;;5079341;28;20188;-77
2023/12/10 10:42:18;;;;;;;26.20;15.27;;;4.20;99.90;;;;;;5095915;28;20185;-76
2023/12/10 10:44:46;;;;;;;24.93;15.50;;;4.20;99.90;;;;;;5099659;28;20180;-77
2023/12/10 10:47:12;;;;;;;28.00;17.13;;;4.00;99.90;;;;;;5094403;28;20171;-79
2023/12/10 10:49:52;;;;;;;29.70;16.83;;;4.10;99.90;;;;;;5095324;28;20628;-77
2023/12/10 10:52:31;;;;;;;26.77;16.47;;;4.30;99.90;;;;;;5098085;28;20166;-76
2023/12/10 10:54:58;;;;;;;32.73;18.63;;;4.40;99.90;;;;;;5096723;28;20568;-78
2023/12/10 10:57:32;;;;;;;29.80;17.67;;;4.50;99.90;;;;;;5094759;28;20258;-77
2023/12/10 10:59:58;;;;;;;29.73;17.97;;;4.50;99.90;;;;;;5095426;28;20290;-78
2023/12/10 11:02:23;;;;;;;30.90;17.93;;;4.40;99.90;;;;;;5097975;28;20256;-78
2023/12/10 11:04:53;;;;;;;30.87;17.60;;;4.40;99.90;;;;;;5095911;28;20175;-79
2023/12/10 11:07:20;;;;;;;29.67;17.87;;;4.40;99.90;;;;;;5101556;28;20183;-77
2023/12/10 11:09:56;;;;;;;30.80;19.20;;;4.20;99.90;;;;;;5098773;28;20225;-77
2023/12/10 11:12:43;;;;;;;32.43;19.80;;;4.20;99.90;;;;;;5094508;28;20179;-79
2023/12/10 11:15:18;;;;;;;36.17;20.57;;;4.20;99.90;;;;;;5094399;28;20184;-78
2023/12/10 11:17:58;;;;;;;28.60;19.13;;;4.20;99.90;;;;;;5077032;28;20194;-78
2023/12/10 11:20:46;;;;;;;32.93;19.53;;;4.20;99.90;;;;;;5094913;28;20229;-80
2023/12/10 11:23:17;;;;;;;35.30;20.30;;;4.10;99.90;;;;;;5076275;28;20538;-78
2023/12/10 11:25:43;;;;;;;30.47;19.10;;;4.00;99.90;;;;;;5094810;28;20180;-77
2023/12/10 11:28:18;;;;;;;30.83;18.83;;;3.80;99.90;;;;;;5096388;28;20220;-78
2023/12/10 11:30:45;;;;;;;31.10;18.07;;;3.80;99.90;;;;;;5097025;28;20179;-78
2023/12/10 11:33:16;;;;;;;35.73;19.27;;;3.80;99.90;;;;;;5094807;28;20172;-76
2023/12/10 11:35:42;;;;;;;29.40;18.70;;;3.80;99.90;;;;;;5094939;28;20672;-77
2023/12/10 11:38:09;;;;;;;52.40;28.13;;;3.80;99.90;;;;;;5103553;28;20172;-76
2023/12/10 11:40:35;;;;;;;29.77;19.53;;;3.90;99.90;;;;;;5096461;28;20188;-76
2023/12/10 11:43:07;;;;;;;34.07;19.30;;;3.90;99.90;;;;;;5095171;28;20398;-77
2023/12/10 11:45:34;;;;;;;31.17;19.70;;;3.90;99.90;;;;;;5094512;28;20660;-79
2023/12/10 11:48:01;;;;;;;32.13;18.93;;;3.80;99.90;;;;;;5099607;28;20178;-79
2023/12/10 11:50:28;;;;;;;36.43;20.20;;;3.80;99.90;;;;;;5095577;28;20168;-77
2023/12/10 11:52:54;;;;;;;35.67;20.37;;;3.90;99.90;;;;;;5094862;28;20162;-77
2023/12/10 11:55:20;;;;;;;32.83;19.70;;;3.80;99.90;;;;;;5098317;28;20235;-78
2023/12/10 11:57:47;;;;;;;36.63;20.53;;;3.80;99.90;;;;;;5107008;28;20185;-78
2023/12/10 12:00:13;;;;;;;38.40;20.67;;;3.70;99.90;;;;;;5082430;28;20210;-77
2023/12/10 12:02:46;;;;;;;36.63;20.60;;;3.70;99.90;;;;;;5076501;28;20177;-78
2023/12/10 12:05:14;;;;;;;31.40;19.70;;;3.70;99.90;;;;;;5094022;28;20293;-79
2023/12/10 12:07:41;;;;;;;36.97;20.07;;;3.70;99.90;;;;;;5075849;28;20182;-81
2023/12/10 12:10:09;;;;;;;30.60;19.70;;;3.70;99.90;;;;;;5096054;28;20228;-78
2023/12/10 12:12:39;;;;;;;31.30;18.83;;;3.70;99.90;;;;;;5094201;28;20186;-78
2023/12/10 12:15:06;;;;;;;33.17;19.00;;;3.80;99.90;;;;;;5094294;28;20192;-78
2023/12/10 12:17:35;;;;;;;35.30;20.97;;;3.80;99.90;;;;;;5094111;28;20209;-80
2023/12/10 12:20:19;;;;;;;32.83;20.30;;;3.70;99.90;;;;;;5075663;28;20185;-78
2023/12/10 12:22:46;;;;;;;35.03;20.33;;;3.70;99.90;;;;;;5094328;28;20174;-78
2023/12/10 12:25:12;;;;;;;36.97;20.87;;;3.60;99.90;;;;;;5094140;28;20176;-78
2023/12/10 12:27:38;;;;;;;38.10;20.60;;;3.60;99.90;;;;;;5094418;28;20223;-76
2023/12/10 12:30:06;;;;;;;37.60;22.13;;;3.60;99.90;;;;;;5089453;28;20162;-76
2023/12/10 12:32:32;;;;;;;36.73;21.60;;;3.70;99.90;;;;;;5101085;28;20178;-77
2023/12/10 12:34:57;;;;;;;34.73;20.10;;;3.80;99.90;;;;;;5098900;28;20188;-77
2023/12/10 12:37:23;;;;;;;38.03;20.67;;;3.80;99.90;;;;;;5105744;28;20684;-80